Time;durP1;ratioP1;P1;durP2;ratioP2;P2;SDS_P1;SDS_P2;PMS_P1;PMS_P2;Temp;Humidity;BMP_temperature;BMP_pressure;BME280_temperature;BME280_humidity;BME280_pressure;Samples;Min_cycle;Max_cycle;Signal;HPM_P1;HPM_P2
2024/01/02 00:00:18;;;;;;;16.85;8.65;;;;;;;1.74;nan;100556.53;5025118;28;20032;-69
2024/01/02 00:02:43;;;;;;;14.30;8.80;;;;;;;1.78;nan;100568.25;5005026;28;20600;-68
2024/01/02 00:05:09;;;;;;;21.55;9.75;;;;;;;1.70;nan;100558.66;5022116;28;20033;-69
2024/01/02 00:07:34;;;;;;;16.83;9.10;;;;;;;1.81;nan;100586.06;5024208;28;20104;-68
2024/01/02 00:10:00;;;;;;;18.02;8.35;;;;;;;1.78;nan;100574.22;5021187;28;20108;-69
2024/01/02 00:12:25;;;;;;;21.50;9.20;;;;;;;1.76;nan;100583.97;5003761;28;20060;-68
2024/01/02 00:14:51;;;;;;;18.08;8.90;;;;;;;1.67;nan;100564.16;5007655;28;20025;-69
2024/01/02 00:17:17;;;;;;;22.70;9.60;;;;;;;1.67;nan;100570.16;5021068;28;20025;-68
2024/01/02 00:19:42;;;;;;;32.00;8.60;;;;;;;1.68;nan;100571.81;5020346;28;20388;-70
2024/01/02 00:22:08;;;;;;;15.90;8.02;;;;;;;1.63;nan;100562.88;5021878;28;20068;-67
2024/01/02 00:24:33;;;;;;;19.33;8.32;;;;;;;1.60;nan;100558.00;5022726;28;20112;-67
2024/01/02 00:26:59;;;;;;;25.73;8.30;;;;;;;1.63;nan;100571.47;5023845;28;20068;-68
2024/01/02 00:29:24;;;;;;;17.88;8.60;;;;;;;1.58;nan;100555.59;5024744;28;20029;-68
2024/01/02 00:31:50;;;;;;;18.10;8.00;;;;;;;1.50;nan;100552.97;5021652;28;20045;-69
2024/01/02 00:34:15;;;;;;;17.67;7.75;;;;;;;1.27;nan;100521.69;5023478;28;20021;-67
2024/01/02 00:36:41;;;;;;;18.60;9.13;;;;;;;1.54;nan;100564.66;5021137;28;20022;-68
2024/01/02 00:39:06;;;;;;;16.10;8.13;;;;;;;1.44;nan;100559.63;5024893;28;20029;-68
2024/01/02 00:41:33;;;;;;;18.70;8.90;;;;;;;1.46;nan;100556.84;5023841;28;20021;-68
2024/01/02 00:43:58;;;;;;;19.42;9.25;;;;;;;1.44;nan;100554.44;5022484;28;20266;-67
2024/01/02 00:46:24;;;;;;;16.10;9.10;;;;;;;1.53;nan;100572.59;5025136;28;20021;-68
2024/01/02 00:48:49;;;;;;;20.17;9.43;;;;;;;1.53;nan;100572.59;5023574;28;20017;-68
2024/01/02 00:51:15;;;;;;;19.08;10.27;;;;;;;1.24;nan;100527.97;5021549;28;20021;-68
2024/01/02 00:53:40;;;;;;;19.23;10.02;;;;;;;1.52;nan;100571.00;5022357;28;20036;-69
2024/01/02 00:56:06;;;;;;;25.02;10.38;;;;;;;1.35;nan;100541.63;5023836;28;20614;-69
2024/01/02 00:58:32;;;;;;;22.63;10.27;;;;;;;1.45;nan;100566.44;5023727;28;20033;-67
2024/01/02 01:00:57;;;;;;;20.42;10.13;;;;;;;1.39;nan;100550.69;5022485;28;20087;-68
2024/01/02 01:03:23;;;;;;;23.98;10.32;;;;;;;1.44;nan;100561.41;5003737;28;20021;-68
2024/01/02 01:05:48;;;;;;;22.40;10.68;;;;;;;1.48;nan;100573.06;5021693;28;20523;-69
2024/01/02 01:08:14;;;;;;;24.25;11.07;;;;;;;1.47;nan;100571.47;4988489;28;20033;-69
2024/01/02 01:10:39;;;;;;;25.23;10.93;;;;;;;1.36;nan;100557.00;5001468;28;20057;-68
2024/01/02 01:13:04;;;;;;;22.45;10.50;;;;;;;1.37;nan;100569.03;5003593;28;20033;-69
2024/01/02 01:15:30;;;;;;;25.27;10.77;;;;;;;1.28;nan;100557.00;5022179;28;20032;-67
2024/01/02 01:17:55;;;;;;;23.20;10.10;;;;;;;1.32;nan;100575.66;5023040;28;20075;-69
2024/01/02 01:20:21;;;;;;;22.65;10.38;;;;;;;1.17;nan;100549.53;5004878;28;20116;-69
2024/01/02 01:22:46;;;;;;;25.70;11.35;;;;;;;1.29;nan;100569.00;5021988;28;20479;-68
2024/01/02 01:25:12;;;;;;;21.90;9.80;;;;;;;0.99;nan;100519.34;5021032;28;20049;-69
2024/01/02 01:27:37;;;;;;;33.60;9.93;;;;;;;1.21;nan;100550.84;5021458;28;20026;-70
2024/01/02 01:30:03;;;;;;;53.10;12.00;;;;;;;1.24;nan;100558.28;5022189;28;20137;-69
2024/01/02 01:32:29;;;;;;;48.85;11.23;;;;;;;1.17;nan;100552.13;5023937;28;20101;-68
2024/01/02 01:34:54;;;;;;;44.53;11.27;;;;;;;1.18;nan;100564.94;5022812;28;20070;-69
2024/01/02 01:37:20;;;;;;;44.70;9.98;;;;;;;1.20;nan;100572.56;5022448;28;20515;-68
2024/01/02 01:39:45;;;;;;;20.67;9.63;;;;;;;1.19;nan;100571.75;5020171;28;20024;-67
2024/01/02 01:42:11;;;;;;;32.15;9.75;;;;;;;1.13;nan;100564.63;5023465;28;20036;-67
2024/01/02 01:44:36;;;;;;;22.73;9.15;;;;;;;1.06;nan;100550.66;5019722;28;20105;-67
2024/01/02 01:47:05;;;;;;;22.65;9.95;;;;;;;1.17;nan;100567.69;5022918;28;20026;-68
2024/01/02 01:49:31;;;;;;;25.63;10.23;;;;;;;1.13;nan;100566.41;5021229;28;20104;-69
2024/01/02 01:51:58;;;;;;;19.73;9.82;;;;;;;1.01;nan;100548.53;5022014;28;20036;-68
2024/01/02 01:54:24;;;;;;;19.17;9.70;;;;;;;1.03;nan;100543.16;5022247;28;20049;-68
2024/01/02 01:56:52;;;;;;;94.88;14.05;;;;;;;0.99;nan;100534.13;5021099;28;20068;-69
2024/01/02 01:59:18;;;;;;;17.10;9.55;;;;;;;0.85;nan;100528.56;5017385;28;20021;-69
2024/01/02 02:01:45;;;;;;;24.85;11.88;;;;;;;1.08;nan;100564.28;5023312;28;20463;-68
2024/01/02 02:04:11;;;;;;;24.35;12.05;;;;;;;1.07;nan;100562.63;5016567;28;20045;-68
2024/01/02 02:06:36;;;;;;;27.08;13.23;;;;;;;1.00;nan;100552.09;5022018;28;20021;-68
2024/01/02 02:09:02;;;;;;;24.92;12.65;;;;;;;1.04;nan;100557.78;5020846;28;20052;-67
2024/01/02 02:11:29;;;;;;;28.27;13.63;;;;;;;0.95;nan;100543.16;5020775;28;20040;-67
2024/01/02 02:13:55;;;;;;;30.38;15.63;;;;;;;1.09;nan;100565.88;5002182;28;20029;-68
2024/01/02 02:16:20;;;;;;;30.73;15.25;;;;;;;0.84;nan;100516.56;5022532;28;20024;-68
2024/01/02 02:18:45;;;;;;;22.25;11.50;;;;;;;1.03;nan;100550.94;5020445;28;20029;-67
2024/01/02 02:21:11;;;;;;;24.13;12.13;;;;;;;1.06;nan;100556.66;5021023;28;20040;-68
2024/01/02 02:23:36;;;;;;;21.13;11.02;;;;;;;1.01;nan;100542.53;5021045;28;20203;-70
2024/01/02 02:26:02;;;;;;;21.88;11.48;;;;;;;1.10;nan;100553.72;5021325;28;20050;-69
2024/01/02 02:28:27;;;;;;;22.70;12.05;;;;;;;0.97;nan;100530.84;5003277;28;20033;-69
2024/01/02 02:30:53;;;;;;;25.15;11.90;;;;;;;1.12;nan;100550.00;5022425;28;20041;-69
2024/01/02 02:33:18;;;;;;;24.55;11.82;;;;;;;1.05;nan;100543.84;5021454;28;20573;-68
2024/01/02 02:35:44;;;;;;;22.25;12.25;;;;;;;1.14;nan;100550.66;5025459;28;20478;-68
2024/01/02 02:38:09;;;;;;;24.15;12.15;;;;;;;1.14;nan;100547.25;5023071;28;20022;-68
2024/01/02 02:40:36;;;;;;;26.17;13.38;;;;;;;1.15;nan;100557.50;5024800;28;20048;-69
2024/01/02 02:43:01;;;;;;;24.10;12.45;;;;;;;0.96;nan;100530.06;5025275;28;20624;-67
2024/01/02 02:45:27;;;;;;;21.88;12.18;;;;;;;0.90;nan;100509.94;5003590;28;20056;-68
2024/01/02 02:47:53;;;;;;;24.70;12.68;;;;;;;1.15;nan;100554.06;5025306;28;20064;-68
2024/01/02 02:50:19;;;;;;;25.77;12.93;;;;;;;1.22;nan;100555.88;5022014;28;20551;-67
2024/01/02 02:52:44;;;;;;;28.08;13.30;;;;;;;1.14;nan;100542.88;5026117;28;20049;-69
2024/01/02 02:55:09;;;;;;;27.90;14.13;;;;;;;1.16;nan;100540.94;5024126;28;20025;-67
2024/01/02 02:57:35;;;;;;;28.77;14.07;;;;;;;1.24;nan;100548.72;5024822;28;20017;-70
2024/01/02 03:00:00;;;;;;;27.25;13.68;;;;;;;1.28;nan;100560.41;5025011;28;20029;-67
2024/01/02 03:02:26;;;;;;;39.50;14.27;;;;;;;1.20;nan;100542.25;5018650;28;20580;-69
2024/01/02 03:04:51;;;;;;;37.40;13.43;;;;;;;1.14;nan;100544.66;5024693;28;20017;-68
2024/01/02 03:07:18;;;;;;;29.42;13.45;;;;;;;1.15;nan;100536.75;5023356;28;20052;-68
2024/01/02 03:09:44;;;;;;;34.65;13.57;;;;;;;1.21;nan;100543.06;5004796;28;20018;-69
2024/01/02 03:12:11;;;;;;;36.67;13.60;;;;;;;1.19;nan;100545.81;5024130;28;20112;-67
2024/01/02 03:14:37;;;;;;;38.55;14.05;;;;;;;1.14;nan;100537.69;4998929;28;20029;-67
2024/01/02 03:17:04;;;;;;;29.38;13.30;;;;;;;1.16;nan;100533.16;5002880;28;20103;-68
2024/01/02 03:19:29;;;;;;;28.25;12.45;;;;;;;1.24;nan;100542.72;5023955;28;20466;-67
2024/01/02 03:21:55;;;;;;;29.67;13.98;;;;;;;1.26;nan;100541.59;5024717;28;20083;-67
2024/01/02 03:24:20;;;;;;;25.73;12.60;;;;;;;1.03;nan;100501.69;5006677;28;20502;-68
2024/01/02 03:26:46;;;;;;;30.55;13.07;;;;;;;1.16;nan;100514.19;5026311;28;20041;-69
2024/01/02 03:29:11;;;;;;;29.48;13.85;;;;;;;1.34;nan;100543.41;5026297;28;20022;-68
2024/01/02 03:31:36;;;;;;;29.95;12.50;;;;;;;1.30;nan;100539.50;5025034;28;20048;-68
2024/01/02 03:34:03;;;;;;;24.80;12.50;;;;;;;1.38;nan;100538.69;5022243;28;20036;-68
2024/01/02 03:36:28;;;;;;;24.55;11.85;;;;;;;1.36;nan;100533.66;5024401;28;20029;-68
2024/01/02 03:38:54;;;;;;;24.83;11.23;;;;;;;1.26;nan;100520.84;5024928;28;20030;-69
2024/01/02 03:41:20;;;;;;;19.52;10.63;;;;;;;1.34;nan;100527.84;5024407;28;20117;-68
2024/01/02 03:43:45;;;;;;;20.45;10.80;;;;;;;1.34;nan;100527.00;5024004;28;20055;-67
2024/01/02 03:46:12;;;;;;;36.92;11.18;;;;;;;1.32;nan;100527.19;5024927;28;20043;-68
2024/01/02 03:48:37;;;;;;;26.50;10.55;;;;;;;1.29;nan;100522.31;5005663;28;20403;-68
2024/01/02 03:51:03;;;;;;;23.42;12.20;;;;;;;1.13;nan;100504.16;5025727;28;20028;-67
2024/01/02 03:53:29;;;;;;;24.45;11.88;;;;;;;1.21;nan;100517.13;5025792;28;20061;-67
2024/01/02 03:55:56;;;;;;;33.03;12.48;;;;;;;1.18;nan;100507.88;5024445;28;20030;-66
2024/01/02 03:58:21;;;;;;;30.63;11.65;;;;;;;1.22;nan;100510.94;5026228;28;20036;-68
2024/01/02 04:00:47;;;;;;;24.65;11.63;;;;;;;1.12;nan;100507.69;5023733;28;20470;-67
2024/01/02 04:03:12;;;;;;;19.40;10.27;;;;;;;0.95;nan;100478.34;5004438;28;20044;-69
2024/01/02 04:05:37;;;;;;;25.13;11.93;;;;;;;1.05;nan;100499.75;5022753;28;20036;-68
2024/01/02 04:08:03;;;;;;;25.85;11.30;;;;;;;1.00;nan;100500.22;5005566;28;20045;-70
2024/01/02 04:10:29;;;;;;;23.30;11.63;;;;;;;0.91;nan;100501.22;5023181;28;20030;-68
2024/01/02 04:12:54;;;;;;;31.92;13.15;;;;;;;0.89;nan;100491.94;5023871;28;20022;-68
2024/01/02 04:15:19;;;;;;;28.98;13.07;;;;;;;0.89;nan;100497.13;5024764;28;20121;-68
2024/01/02 04:17:45;;;;;;;34.85;13.07;;;;;;;0.90;nan;100502.16;5024688;28;20021;-68
2024/01/02 04:20:10;;;;;;;32.85;13.35;;;;;;;0.88;nan;100492.91;5004336;28;20024;-69
2024/01/02 04:22:36;;;;;;;33.55;13.27;;;;;;;0.59;nan;100443.13;5023002;28;20116;-67
2024/01/02 04:25:02;;;;;;;38.70;13.68;;;;;;;0.91;nan;100497.78;5022745;28;20041;-70
2024/01/02 04:27:27;;;;;;;34.92;13.70;;;;;;;0.93;nan;100504.44;5025746;28;20044;-70
2024/01/02 04:29:53;;;;;;;26.55;12.80;;;;;;;0.91;nan;100502.97;5024823;28;20538;-69
2024/01/02 04:32:18;;;;;;;32.80;12.98;;;;;;;0.93;nan;100508.81;5005583;28;20104;-69
2024/01/02 04:34:43;;;;;;;27.63;13.23;;;;;;;0.94;nan;100526.81;5022164;28;20030;-69
2024/01/02 04:37:10;;;;;;;31.25;13.35;;;;;;;0.89;nan;100518.69;5020868;28;20032;-69
2024/01/02 04:39:36;;;;;;;36.40;13.27;;;;;;;0.86;nan;100511.22;5005582;28;20033;-68
2024/01/02 04:42:02;;;;;;;28.00;13.90;;;;;;;0.75;nan;100498.56;5022278;28;20025;-70
2024/01/02 04:44:28;;;;;;;31.25;13.57;;;;;;;0.94;nan;100521.63;5021291;28;20021;-69
2024/01/02 04:46:53;;;;;;;31.65;13.13;;;;;;;0.83;nan;100514.13;5021146;28;20114;-69
2024/01/02 04:49:19;;;;;;;32.35;11.55;;;;;;;0.93;nan;100524.38;5024116;28;20140;-69
2024/01/02 04:51:45;;;;;;;23.00;11.27;;;;;;;0.97;nan;100531.66;5023498;28;20120;-70
2024/01/02 04:54:10;;;;;;;28.63;11.02;;;;;;;0.99;nan;100531.53;5023114;28;20068;-69
2024/01/02 04:56:35;;;;;;;26.08;11.32;;;;;;;0.56;nan;100465.97;5022339;28;20017;-69
2024/01/02 04:59:01;;;;;;;19.48;9.95;;;;;;;0.97;nan;100530.84;5006231;28;20033;-69
2024/01/02 05:01:27;;;;;;;36.55;11.18;;;;;;;0.97;nan;100536.03;5023789;28;20053;-70
2024/01/02 05:03:52;;;;;;;22.85;10.38;;;;;;;0.94;nan;100526.00;5002668;28;20037;-69
2024/01/02 05:06:18;;;;;;;24.55;10.85;;;;;;;0.97;nan;100523.09;5021310;28;20036;-69
2024/01/02 05:08:43;;;;;;;31.73;11.02;;;;;;;0.98;nan;100516.91;5023142;28;20104;-69
2024/01/02 05:11:09;;;;;;;25.75;10.82;;;;;;;1.06;nan;100529.91;5002723;28;20496;-68
2024/01/02 05:13:36;;;;;;;40.42;11.02;;;;;;;1.06;nan;100530.72;5022514;28;20021;-69
2024/01/02 05:16:01;;;;;;;49.25;10.25;;;;;;;0.96;nan;100511.06;5005270;28;20030;-70
2024/01/02 05:18:27;;;;;;;49.10;10.40;;;;;;;1.09;nan;100526.19;5022595;28;20021;-68
2024/01/02 05:20:52;;;;;;;31.80;9.18;;;;;;;1.08;nan;100524.53;5021110;28;20064;-68
2024/01/02 05:23:18;;;;;;;40.85;10.32;;;;;;;1.05;nan;100523.91;5021407;28;20493;-69
2024/01/02 05:25:44;;;;;;;36.47;9.85;;;;;;;0.95;nan;100506.88;5018029;28;20096;-69
2024/01/02 05:28:09;;;;;;;40.25;10.73;;;;;;;1.07;nan;100531.53;5023939;28;20048;-69
2024/01/02 05:30:35;;;;;;;26.48;9.73;;;;;;;1.04;nan;100532.66;5020039;28;20029;-68
2024/01/02 05:33:00;;;;;;;27.60;9.20;;;;;;;1.00;nan;100533.94;5022831;28;20017;-68
2024/01/02 05:35:26;;;;;;;23.95;8.90;;;;;;;1.05;nan;100549.03;5022993;28;20028;-66
2024/01/02 05:37:51;;;;;;;22.08;9.20;;;;;;;0.97;nan;100534.25;5022051;28;20045;-69
2024/01/02 05:40:17;;;;;;;24.17;9.45;;;;;;;0.91;nan;100540.09;5021429;28;20021;-68
2024/01/02 05:42:43;;;;;;;33.88;10.02;;;;;;;1.00;nan;100557.28;5003619;28;20028;-69
2024/01/02 05:45:09;;;;;;;32.72;10.85;;;;;;;0.99;nan;100565.22;5022925;28;20025;-69
2024/01/02 05:47:34;;;;;;;36.63;10.98;;;;;;;0.98;nan;100556.66;5021433;28;20036;-69
2024/01/02 05:50:00;;;;;;;50.35;11.27;;;;;;;0.89;nan;100542.03;5000961;28;20117;-68
2024/01/02 05:52:25;;;;;;;52.38;11.70;;;;;;;0.93;nan;100547.69;5022878;28;20112;-68
2024/01/02 05:54:50;;;;;;;55.03;11.18;;;;;;;0.99;nan;100576.41;5003305;28;20021;-68
2024/01/02 05:57:16;;;;;;;25.05;10.15;;;;;;;0.93;nan;100563.25;5004767;28;20021;-68
2024/01/02 05:59:41;;;;;;;49.13;10.60;;;;;;;0.91;nan;100567.78;5022594;28;20032;-69
2024/01/02 06:02:07;;;;;;;36.53;10.32;;;;;;;0.88;nan;100571.50;5021523;28;20025;-68
2024/01/02 06:04:32;;;;;;;56.83;14.15;;;;;;;0.86;nan;100578.63;5020794;28;20018;-68
2024/01/02 06:06:58;;;;;;;49.22;10.45;;;;;;;0.83;nan;100569.38;5020677;28;20531;-69
2024/01/02 06:09:24;;;;;;;35.78;10.35;;;;;;;0.92;nan;100583.19;5018666;28;20025;-69
2024/01/02 06:11:49;;;;;;;35.90;10.93;;;;;;;0.91;nan;100591.94;5020457;28;20030;-69
2024/01/02 06:14:15;;;;;;;36.45;11.02;;;;;;;0.91;nan;100586.75;5020312;28;20029;-69
2024/01/02 06:16:41;;;;;;;48.90;11.50;;;;;;;0.63;nan;100550.69;5022803;28;20036;-69
2024/01/02 06:19:07;;;;;;;35.38;11.35;;;;;;;0.84;nan;100588.34;5003566;28;20025;-70
2024/01/02 06:21:32;;;;;;;62.70;12.57;;;;;;;0.92;nan;100600.53;5021333;28;20467;-69
2024/01/02 06:23:58;;;;;;;44.38;12.50;;;;;;;0.87;nan;100603.59;5018439;28;20052;-69
2024/01/02 06:26:23;;;;;;;49.95;12.10;;;;;;;0.93;nan;100609.91;5002804;28;20049;-70
2024/01/02 06:28:49;;;;;;;56.03;13.35;;;;;;;0.82;nan;100595.47;5017180;28;20044;-71
2024/01/02 06:31:14;;;;;;;73.72;12.25;;;;;;;0.93;nan;100610.72;5020678;28;20025;-69
2024/01/02 06:33:44;;;;;;;62.85;12.95;;;;;;;0.84;nan;100593.53;5018176;28;20037;-69
2024/01/02 06:36:10;;;;;;;61.78;11.30;;;;;;;0.87;nan;100607.97;5022438;28;20041;-67
2024/01/02 06:38:35;;;;;;;63.58;10.50;;;;;;;0.86;nan;100625.28;5000233;28;20069;-69
2024/01/02 06:41:01;;;;;;;45.45;10.90;;;;;;;0.71;nan;100611.28;5015112;28;20887;-68
2024/01/02 06:43:26;;;;;;;777.92;136.65;;;;;;;0.62;nan;100606.09;5020453;28;20068;-69
2024/01/02 06:45:51;;;;;;;1999.90;815.20;;;;;;;0.82;nan;100608.44;5020584;28;20025;-69
2024/01/02 06:48:17;;;;;;;46.83;15.95;;;;;;;1.12;nan;100621.81;5019525;28;20068;-70
2024/01/02 06:50:42;;;;;;;63.72;14.80;;;;;;;1.19;nan;100628.00;5017352;28;20034;-69
2024/01/02 06:53:08;;;;;;;43.10;13.25;;;;;;;1.12;nan;100625.22;5016687;28;20048;-70
2024/01/02 06:55:33;;;;;;;38.75;11.30;;;;;;;1.03;nan;100634.78;5022258;28;20021;-70
2024/01/02 06:58:00;;;;;;;24.05;8.57;;;;;;;0.75;nan;100599.66;5021871;28;20045;-70
2024/01/02 07:00:25;;;;;;;65.43;9.70;;;;;;;0.78;nan;100612.28;5002706;28;20013;-71
2024/01/02 07:02:51;;;;;;;23.88;8.95;;;;;;;0.76;nan;100614.22;5021072;28;20494;-69
2024/01/02 07:05:17;;;;;;;24.35;8.73;;;;;;;0.71;nan;100611.28;5014554;28;20025;-70
2024/01/02 07:07:42;;;;;;;24.35;9.25;;;;;;;0.68;nan;100602.06;5003103;28;20034;-70
2024/01/02 07:10:08;;;;;;;19.25;8.88;;;;;;;0.60;nan;100591.66;5020714;28;20041;-71
2024/01/02 07:12:33;;;;;;;28.75;8.57;;;;;;;0.56;nan;100606.69;5016581;28;20555;-71
2024/01/02 07:14:59;;;;;;;28.25;9.30;;;;;;;0.61;nan;100619.19;5019216;28;20140;-70
2024/01/02 07:17:25;;;;;;;45.00;10.38;;;;;;;0.58;nan;100612.53;5016972;28;20515;-70
2024/01/02 07:19:51;;;;;;;46.70;10.00;;;;;;;0.47;nan;100602.44;5022649;28;20061;-70
2024/01/02 07:22:17;;;;;;;61.33;10.00;;;;;;;0.52;nan;100609.75;5021157;28;20041;-70
2024/01/02 07:24:44;;;;;;;51.63;10.60;;;;;;;0.42;nan;100604.66;5004476;28;20502;-71
2024/01/02 07:27:09;;;;;;;52.05;9.98;;;;;;;0.47;nan;100607.59;5019839;28;20117;-71
2024/01/02 07:29:35;;;;;;;39.95;10.52;;;;;;;0.37;nan;100596.56;5005211;28;20108;-70
2024/01/02 07:32:00;;;;;;;42.42;10.88;;;;;;;0.42;nan;100594.31;5022821;28;20021;-71
2024/01/02 07:34:25;;;;;;;46.65;10.98;;;;;;;0.23;nan;100564.25;5021694;28;20033;-71
2024/01/02 07:36:51;;;;;;;46.63;11.10;;;;;;;0.38;nan;100598.16;5021153;28;20033;-70
2024/01/02 07:39:16;;;;;;;42.75;11.27;;;;;;;0.21;nan;100571.34;5022258;28;20687;-73
2024/01/02 07:41:42;;;;;;;36.42;11.55;;;;;;;0.29;nan;100589.56;5000219;28;20044;-70
2024/01/02 07:44:07;;;;;;;277.13;30.70;;;;;;;0.33;nan;100595.22;5020045;28;20032;-70
2024/01/02 07:46:33;;;;;;;38.17;13.07;;;;;;;0.39;nan;100597.22;5022986;28;20491;-70
2024/01/02 07:48:58;;;;;;;59.83;11.68;;;;;;;0.20;nan;100572.34;5024614;28;20475;-70
2024/01/02 07:51:24;;;;;;;45.55;11.63;;;;;;;0.37;nan;100601.72;5014989;28;20172;-70
2024/01/02 07:53:49;;;;;;;60.97;11.30;;;;;;;0.34;nan;100599.47;5003025;28;20029;-71
2024/01/02 07:56:19;;;;;;;25.60;10.23;;;;;;;0.28;nan;100595.69;5022464;28;20033;-71
2024/01/02 07:58:46;;;;;;;31.27;11.35;;;;;;;0.29;nan;100581.78;5023120;28;20179;-71
2024/01/02 08:01:12;;;;;;;31.17;11.02;;;;;;;0.29;nan;100579.19;5024671;28;20038;-71
2024/01/02 08:03:37;;;;;;;93.85;13.55;;;;;;;0.39;nan;100589.44;5020433;28;20078;-70
2024/01/02 08:06:03;;;;;;;42.70;11.13;;;;;;;0.18;nan;100561.31;5020780;28;20025;-71
2024/01/02 08:08:29;;;;;;;63.75;12.07;;;;;;;0.32;nan;100570.31;5023013;28;20030;-71
2024/01/02 08:10:55;;;;;;;70.97;12.63;;;;;;;0.44;nan;100584.59;5005891;28;20482;-71
2024/01/02 08:13:20;;;;;;;83.97;13.85;;;;;;;0.19;nan;100542.22;5024914;28;20036;-70
2024/01/02 08:15:45;;;;;;;107.40;14.25;;;;;;;0.41;nan;100577.16;5006103;28;20033;-71
2024/01/02 08:18:11;;;;;;;83.80;14.55;;;;;;;0.48;nan;100577.31;5024368;28;20029;-70
2024/01/02 08:20:36;;;;;;;88.35;14.25;;;;;;;0.51;nan;100577.84;5004961;28;20025;-72
2024/01/02 08:23:03;;;;;;;77.43;15.15;;;;;;;0.43;nan;100564.84;5023916;28;20025;-70
2024/01/02 08:25:28;;;;;;;78.18;14.43;;;;;;;0.57;nan;100581.59;5023477;28;20160;-71
2024/01/02 08:27:53;;;;;;;85.35;16.70;;;;;;;0.56;nan;100579.97;5024469;28;20783;-70
2024/01/02 08:30:19;;;;;;;75.82;16.13;;;;;;;0.64;nan;100588.56;5024314;28;20104;-70
2024/01/02 08:32:45;;;;;;;68.40;15.80;;;;;;;0.66;nan;100579.84;5023432;28;20025;-70
2024/01/02 08:35:10;;;;;;;72.97;17.17;;;;;;;0.74;nan;100593.66;5023141;28;20091;-70
2024/01/02 08:37:36;;;;;;;74.32;17.00;;;;;;;0.67;nan;100577.13;5022989;28;20047;-70
2024/01/02 08:40:01;;;;;;;79.38;16.92;;;;;;;0.74;nan;100598.84;5022313;28;20073;-69
2024/01/02 08:42:27;;;;;;;69.22;18.00;;;;;;;0.89;nan;100604.25;5024073;28;20574;-70
2024/01/02 08:44:52;;;;;;;76.78;18.60;;;;;;;0.93;nan;100604.72;5021538;28;20036;-70
2024/01/02 08:47:17;;;;;;;90.05;18.48;;;;;;;0.93;nan;100602.16;5021818;28;20032;-70
2024/01/02 08:49:43;;;;;;;84.47;19.48;;;;;;;1.00;nan;100609.13;5020208;28;20067;-70
2024/01/02 08:52:08;;;;;;;117.60;19.75;;;;;;;;;;5015918;28;20033;-71
2024/01/02 08:54:34;;;;;;;98.35;20.63;;;;;;;;;;4999458;28;20045;-70
2024/01/02 08:56:59;;;;;;;80.68;20.27;;;;;;;;;;5018870;28;20071;-70
2024/01/02 08:59:24;;;;;;;112.55;21.83;;;;;;;1.18;nan;100598.66;5022321;28;20108;-70
2024/01/02 09:01:51;;;;;;;116.25;22.77;;;;;;;1.11;nan;100579.53;5024005;28;20033;-70
2024/01/02 09:04:17;;;;;;;94.22;22.52;;;;;;;1.30;nan;100596.59;5024936;28;20098;-70
2024/01/02 09:06:43;;;;;;;88.53;22.55;;;;;;;1.20;nan;100570.78;5025237;28;20083;-70
2024/01/02 09:09:09;;;;;;;136.23;24.63;;;;;;;1.08;nan;100540.94;5002894;28;20030;-70
2024/01/02 09:11:34;;;;;;;134.40;25.40;;;;;;;1.04;nan;100526.66;5006609;28;20116;-71
2024/01/02 09:14:00;;;;;;;110.35;25.20;;;;;;;1.54;nan;100600.19;5019780;28;20029;-71
2024/01/02 09:16:30;;;;;;;82.10;26.90;;;;;;;1.48;nan;100581.69;5023868;28;20032;-71
2024/01/02 09:18:55;;;;;;;120.53;28.88;;;;;;;1.64;nan;100585.25;5022245;28;20727;-70
2024/01/02 09:21:21;;;;;;;91.22;27.80;;;;;;;1.69;nan;100577.81;5026512;28;20473;-70
2024/01/02 09:23:46;;;;;;;114.00;29.42;;;;;;;1.73;nan;100570.50;5018671;28;20108;-71
2024/01/02 09:26:16;;;;;;;120.68;28.35;;;;;;;1.80;nan;100567.09;5024492;28;20049;-70
2024/01/02 09:28:43;;;;;;;115.40;29.73;;;;;;;1.92;nan;100559.78;5025309;28;20018;-71
2024/01/02 09:31:08;;;;;;;127.65;30.88;;;;;;;2.02;nan;100562.22;5026742;28;20033;-69
2024/01/02 09:33:34;;;;;;;135.73;31.83;;;;;;;2.09;nan;100560.56;5023782;28;20456;-69
2024/01/02 09:35:59;;;;;;;109.63;31.35;;;;;;;2.13;nan;100551.44;5023568;28;20029;-69
2024/01/02 09:38:25;;;;;;;111.97;31.90;;;;;;;;;;5004533;28;20037;-69
2024/01/02 09:41:03;;;;;;;108.45;30.30;;;;;;;;;;5017605;28;20032;-69
2024/01/02 09:43:37;;;;;;;116.18;31.27;;;;;;;;;;5018128;28;20029;-69
2024/01/02 09:46:06;;;;;;;144.23;32.28;;;;;;;;;;5023257;28;20095;-69
2024/01/02 09:48:43;;;;;;;110.38;31.10;;;;;;;;;;5023316;28;20025;-70
2024/01/02 09:51:11;;;;;;;114.30;33.13;;;;;;;;;;5016798;28;20061;-66
2024/01/02 09:53:37;;;;;;;121.53;34.67;;;;;;;;;;5022928;28;20530;-68
2024/01/02 09:56:10;;;;;;;183.83;38.23;;;;;;;;;;5005981;28;20063;-68
2024/01/02 09:58:54;;;;;;;127.80;37.53;;;;;;;;;;5024320;28;20281;-70
2024/01/02 10:01:25;;;;;;;132.73;38.05;;;;;;;;;;5023783;28;20047;-69
2024/01/02 10:03:54;;;;;;;135.40;39.95;;;;;;;;;;5023411;28;20029;-69
2024/01/02 10:06:39;;;;;;;142.82;40.88;;;;;;;;;;5019769;28;20104;-70
2024/01/02 10:09:40;;;;;;;144.55;42.30;;;;;;;;;;5020947;28;20115;-71
2024/01/02 10:12:27;;;;;;;150.13;42.25;;;;;;;;;;4941761;28;20031;-68
2024/01/02 10:14:52;;;;;;;155.80;44.08;;;;;;;;;;4941111;28;21469;-69
2024/01/02 10:17:33;;;;;;;156.13;44.33;;;;;;;;;;4942172;28;20039;-69
2024/01/02 10:20:04;;;;;;;153.80;43.78;;;;;;;;;;4940853;28;20925;-69
2024/01/02 10:22:44;;;;;;;152.85;42.50;;;;;;;;;;4926428;28;20529;-69
2024/01/02 10:25:10;;;;;;;90.55;32.33;;;;;;;;;;4942112;28;20488;-67
2024/01/02 10:27:42;;;;;;;79.72;29.02;;;;;;;;;;4941120;28;20644;-68
2024/01/02 10:30:09;;;;;;;76.47;28.55;;;;;;;;;;4942750;28;20035;-68
2024/01/02 10:32:54;;;;;;;84.60;29.08;;;;;;;;;;4942128;28;20038;-69
2024/01/02 10:41:16;;;;;;;70.63;24.20;;;;;;;;;;4978759;28;20621;-70
2024/01/02 10:43:51;;;;;;;51.55;19.83;;;;;;;;;;4977180;28;20057;-70
2024/01/02 10:46:33;;;;;;;38.10;16.45;;;;;;;;;;4977803;28;20518;-69
2024/01/02 10:49:07;;;;;;;38.67;17.05;;;;;;;;;;4959956;28;20041;-69
2024/01/02 10:51:39;;;;;;;38.70;17.10;;;;;;;;;;4979505;28;20436;-69
2024/01/02 10:54:08;;;;;;;32.05;15.68;;;;;;;;;;4979091;28;20117;-69
2024/01/02 10:56:37;;;;;;;29.67;14.30;;;;;;;;;;4982016;28;20034;-68
2024/01/02 10:59:21;;;;;;;35.87;16.33;;;;;;;;;;4983212;28;20271;-69
2024/01/02 11:01:48;;;;;;;28.35;13.98;;;;;;;;;;4983519;28;20271;-69
2024/01/02 11:04:32;;;;;;;28.30;13.52;;;;;;;;;;4982589;28;20165;-70
2024/01/02 11:07:03;;;;;;;27.63;14.10;;;;;;;;;;4981548;28;20088;-68
2024/01/02 11:09:48;;;;;;;20.83;11.00;;;;;;;;;;4982840;28;20035;-65
2024/01/02 11:12:14;;;;;;;20.33;9.85;;;;;;;;;;4978460;28;20133;-67
2024/01/02 11:14:40;;;;;;;14.27;9.02;;;;;;;;;;4970556;28;20038;-67
2024/01/02 11:17:06;;;;;;;14.95;8.73;;;;;;;;;;4982488;28;20649;-66
2024/01/02 11:19:37;;;;;;;14.15;8.52;;;;;;;;;;4981249;28;20125;-66
2024/01/02 11:22:13;;;;;;;14.18;8.70;;;;;;;;;;4982501;28;20068;-66
2024/01/02 11:24:50;;;;;;;14.65;8.05;;;;;;;;;;4983639;28;20533;-66
2024/01/02 11:27:23;;;;;;;15.85;8.88;;;;;;;7.39;nan;100392.66;4982081;28;20507;-66
2024/01/02 11:29:51;;;;;;;13.95;7.90;;;;;;;;;;4984284;28;20504;-64
2024/01/02 11:32:22;;;;;;;10.93;6.78;;;;;;;;;;4984246;28;20053;-67
2024/01/02 11:34:50;;;;;;;11.23;6.32;;;;;;;;;;4982165;28;20030;-65
2024/01/02 11:37:22;;;;;;;10.63;5.78;;;;;;;;;;4967012;28;20026;-66
2024/01/02 11:39:59;;;;;;;10.60;6.50;;;;;;;;;;4982833;28;20054;-66
2024/01/02 11:42:25;;;;;;;9.93;6.30;;;;;;;;;;4982785;28;20034;-66
2024/01/02 11:45:10;;;;;;;13.23;7.38;;;;;;;;;;4967351;28;20031;-66
2024/01/02 11:47:52;;;;;;;10.90;6.57;;;;;;;;;;4966136;28;20041;-67
2024/01/02 11:50:17;;;;;;;12.13;6.78;;;;;;;;;;4979897;28;20038;-65
2024/01/02 11:53:00;;;;;;;9.68;6.15;;;;;;;;;;4982691;28;20444;-66
2024/01/02 11:55:25;;;;;;;12.45;6.60;;;;;;;;;;4980703;28;20063;-66
2024/01/02 11:57:52;;;;;;;11.03;6.33;;;;;;;;;;4980431;28;20077;-65
2024/01/02 12:00:22;;;;;;;10.80;5.78;;;;;;;;;;4984815;28;20287;-65
2024/01/02 12:02:54;;;;;;;10.57;5.35;;;;;;;;;;4981644;28;20030;-64
2024/01/02 12:05:30;;;;;;;10.00;5.50;;;;;;;;;;4982016;28;20617;-65